sensor_id;sensor_type;location;lat;lon;timestamp;temperature;humidity
44367;DHT22;30086;57.660;12.000;2022-07-04T01:06:33;16.20;99.90
44367;DHT22;30086;57.660;12.000;2022-07-04T01:09:00;16.50;99.90
44367;DHT22;30086;57.660;12.000;2022-07-04T01:11:26;16.70;99.90
44367;DHT22;30086;57.660;12.000;2022-07-04T01:13:54;16.90;99.90
44367;DHT22;30086;57.660;12.000;2022-07-04T01:16:20;16.90;99.90
44367;DHT22;30086;57.660;12.000;2022-07-04T01:18:45;16.90;99.90
44367;DHT22;30086;57.660;12.000;2022-07-04T01:21:11;17.00;99.90
44367;DHT22;30086;57.660;12.000;2022-07-04T01:23:40;17.00;99.90
44367;DHT22;30086;57.660;12.000;2022-07-04T01:26:06;17.10;99.90
44367;DHT22;30086;57.660;12.000;2022-07-04T01:28:33;17.20;99.90
44367;DHT22;30086;57.660;12.000;2022-07-04T01:30:59;17.30;99.90
44367;DHT22;30086;57.660;12.000;2022-07-04T01:33:25;17.30;99.90
44367;DHT22;30086;57.660;12.000;2022-07-04T01:35:51;17.30;99.90
44367;DHT22;30086;57.660;12.000;2022-07-04T01:38:16;17.50;99.90
44367;DHT22;30086;57.660;12.000;2022-07-04T01:40:42;17.60;99.90
44367;DHT22;30086;57.660;12.000;2022-07-04T01:43:07;17.30;99.90
44367;DHT22;30086;57.660;12.000;2022-07-04T01:45:33;17.40;99.90
44367;DHT22;30086;57.660;12.000;2022-07-04T01:48:06;17.40;99.90
44367;DHT22;30086;57.660;12.000;2022-07-04T01:50:32;17.50;99.90
44367;DHT22;30086;57.660;12.000;2022-07-04T01:52:58;17.40;99.90
44367;DHT22;30086;57.660;12.000;2022-07-04T01:55:24;17.60;99.90
44367;DHT22;30086;57.660;12.000;2022-07-04T01:57:50;17.50;99.90
44367;DHT22;30086;57.660;12.000;2022-07-04T02:00:16;17.50;99.90
44367;DHT22;30086;57.660;12.000;2022-07-04T02:03:00;17.40;99.90
44367;DHT22;30086;57.660;12.000;2022-07-04T02:05:26;17.20;99.90
44367;DHT22;30086;57.660;12.000;2022-07-04T02:07:51;17.10;99.90
44367;DHT22;30086;57.660;12.000;2022-07-04T02:10:18;17.00;99.90
44367;DHT22;30086;57.660;12.000;2022-07-04T02:12:43;16.90;99.90
44367;DHT22;30086;57.660;12.000;2022-07-04T02:15:32;16.80;99.90
44367;DHT22;30086;57.660;12.000;2022-07-04T02:17:59;16.80;99.90
44367;DHT22;30086;57.660;12.000;2022-07-04T02:20:25;16.80;99.90
44367;DHT22;30086;57.660;12.000;2022-07-04T02:22:51;16.80;99.90
44367;DHT22;30086;57.660;12.000;2022-07-04T02:25:16;16.70;99.90
44367;DHT22;30086;57.660;12.000;2022-07-04T02:27:42;16.60;99.90
44367;DHT22;30086;57.660;12.000;2022-07-04T02:30:08;16.50;99.90
44367;DHT22;30086;57.660;12.000;2022-07-04T02:32:35;16.40;99.90
44367;DHT22;30086;57.660;12.000;2022-07-04T02:35:01;16.40;99.90
44367;DHT22;30086;57.660;12.000;2022-07-04T02:37:27;16.40;99.90
44367;DHT22;30086;57.660;12.000;2022-07-04T02:39:52;16.40;99.90
44367;DHT22;30086;57.660;12.000;2022-07-04T02:42:18;16.40;99.90
44367;DHT22;30086;57.660;12.000;2022-07-04T02:44:44;16.40;99.90
44367;DHT22;30086;57.660;12.000;2022-07-04T02:47:11;16.50;99.90
44367;DHT22;30086;57.660;12.000;2022-07-04T02:49:36;16.40;99.90
44367;DHT22;30086;57.660;12.000;2022-07-04T02:52:03;16.30;99.90
44367;DHT22;30086;57.660;12.000;2022-07-04T02:54:28;16.30;99.90
44367;DHT22;30086;57.660;12.000;2022-07-04T02:56:54;16.30;99.90
44367;DHT22;30086;57.660;12.000;2022-07-04T02:59:20;16.30;99.90
44367;DHT22;30086;57.660;12.000;2022-07-04T03:01:46;16.20;99.90
44367;DHT22;30086;57.660;12.000;2022-07-04T03:04:11;16.20;99.90
44367;DHT22;30086;57.660;12.000;2022-07-04T03:06:37;16.40;99.90
44367;DHT22;30086;57.660;12.000;2022-07-04T03:09:03;16.30;99.90
44367;DHT22;30086;57.660;12.000;2022-07-04T03:11:28;16.20;99.90
44367;DHT22;30086;57.660;12.000;2022-07-04T03:13:54;16.40;99.90
44367;DHT22;30086;57.660;12.000;2022-07-04T03:16:19;16.40;99.90
44367;DHT22;30086;57.660;12.000;2022-07-04T03:18:45;16.60;99.90
44367;DHT22;30086;57.660;12.000;2022-07-04T03:21:11;16.50;99.90
44367;DHT22;30086;57.660;12.000;2022-07-04T03:23:36;16.30;99.90
44367;DHT22;30086;57.660;12.000;2022-07-04T03:26:02;16.30;99.90
44367;DHT22;30086;57.660;12.000;2022-07-04T03:28:28;16.30;99.90
44367;DHT22;30086;57.660;12.000;2022-07-04T03:30:54;16.40;99.90
44367;DHT22;30086;57.660;12.000;2022-07-04T03:33:19;16.30;99.90
44367;DHT22;30086;57.660;12.000;2022-07-04T03:35:45;16.30;99.90
44367;DHT22;30086;57.660;12.000;2022-07-04T03:38:11;16.40;99.90
44367;DHT22;30086;57.660;12.000;2022-07-04T03:40:37;16.50;99.90
44367;DHT22;30086;57.660;12.000;2022-07-04T03:43:04;16.50;99.90
44367;DHT22;30086;57.660;12.000;2022-07-04T03:45:32;16.60;99.90
44367;DHT22;30086;57.660;12.000;2022-07-04T03:47:57;16.40;99.90
44367;DHT22;30086;57.660;12.000;2022-07-04T03:50:24;16.40;99.90
44367;DHT22;30086;57.660;12.000;2022-07-04T03:52:50;16.50;99.90
44367;DHT22;30086;57.660;12.000;2022-07-04T03:55:16;16.50;99.90
44367;DHT22;30086;57.660;12.000;2022-07-04T03:57:41;16.50;99.90
44367;DHT22;30086;57.660;12.000;2022-07-04T04:00:08;16.40;99.90
44367;DHT22;30086;57.660;12.000;2022-07-04T04:02:35;16.50;99.90
44367;DHT22;30086;57.660;12.000;2022-07-04T04:05:01;16.50;99.90
44367;DHT22;30086;57.660;12.000;2022-07-04T04:07:45;16.40;99.90
44367;DHT22;30086;57.660;12.000;2022-07-04T04:10:11;16.40;99.90
44367;DHT22;30086;57.660;12.000;2022-07-04T04:12:36;16.50;99.90
44367;DHT22;30086;57.660;12.000;2022-07-04T04:15:02;16.50;99.90
44367;DHT22;30086;57.660;12.000;2022-07-04T04:17:28;16.50;99.90
44367;DHT22;30086;57.660;12.000;2022-07-04T04:19:53;16.60;99.90
44367;DHT22;30086;57.660;12.000;2022-07-04T04:22:19;16.60;99.90
44367;DHT22;30086;57.660;12.000;2022-07-04T04:24:45;16.60;99.90
44367;DHT22;30086;57.660;12.000;2022-07-04T04:27:10;16.80;99.90
44367;DHT22;30086;57.660;12.000;2022-07-04T04:29:36;16.80;99.90
44367;DHT22;30086;57.660;12.000;2022-07-04T04:32:02;16.80;99.90
44367;DHT22;30086;57.660;12.000;2022-07-04T04:34:28;16.80;99.90
44367;DHT22;30086;57.660;12.000;2022-07-04T04:36:53;16.90;99.90
44367;DHT22;30086;57.660;12.000;2022-07-04T04:39:19;17.00;99.90
44367;DHT22;30086;57.660;12.000;2022-07-04T04:41:44;16.90;99.90
44367;DHT22;30086;57.660;12.000;2022-07-04T04:44:10;16.90;99.90
44367;DHT22;30086;57.660;12.000;2022-07-04T04:46:35;17.00;99.90
44367;DHT22;30086;57.660;12.000;2022-07-04T04:49:01;17.00;99.90
44367;DHT22;30086;57.660;12.000;2022-07-04T04:51:27;17.10;99.90
44367;DHT22;30086;57.660;12.000;2022-07-04T04:53:55;17.00;99.90
44367;DHT22;30086;57.660;12.000;2022-07-04T04:56:20;16.90;99.90
44367;DHT22;30086;57.660;12.000;2022-07-04T04:58:46;16.90;99.90
44367;DHT22;30086;57.660;12.000;2022-07-04T05:01:12;16.80;99.90
44367;DHT22;30086;57.660;12.000;2022-07-04T05:03:38;16.70;99.90
44367;DHT22;30086;57.660;12.000;2022-07-04T05:06:03;16.80;99.90
44367;DHT22;30086;57.660;12.000;2022-07-04T05:08:29;16.70;99.90
44367;DHT22;30086;57.660;12.000;2022-07-04T05:10:55;16.70;99.90
44367;DHT22;30086;57.660;12.000;2022-07-04T05:13:20;16.70;99.90
44367;DHT22;30086;57.660;12.000;2022-07-04T05:15:46;16.60;99.90
44367;DHT22;30086;57.660;12.000;2022-07-04T05:18:12;16.60;99.90
44367;DHT22;30086;57.660;12.000;2022-07-04T05:20:38;16.70;99.90
44367;DHT22;30086;57.660;12.000;2022-07-04T05:23:05;16.50;99.90
44367;DHT22;30086;57.660;12.000;2022-07-04T05:25:31;16.70;99.90
44367;DHT22;30086;57.660;12.000;2022-07-04T05:27:57;16.80;99.90
44367;DHT22;30086;57.660;12.000;2022-07-04T05:30:23;16.70;99.90
44367;DHT22;30086;57.660;12.000;2022-07-04T05:32:49;16.70;99.90
44367;DHT22;30086;57.660;12.000;2022-07-04T05:35:14;16.80;99.90
44367;DHT22;30086;57.660;12.000;2022-07-04T05:37:42;16.80;99.90
44367;DHT22;30086;57.660;12.000;2022-07-04T05:40:09;17.00;99.90
44367;DHT22;30086;57.660;12.000;2022-07-04T05:42:35;17.10;99.90
44367;DHT22;30086;57.660;12.000;2022-07-04T05:45:01;17.40;99.90
44367;DHT22;30086;57.660;12.000;2022-07-04T05:47:27;17.40;99.90
44367;DHT22;30086;57.660;12.000;2022-07-04T05:49:53;17.30;99.90
44367;DHT22;30086;57.660;12.000;2022-07-04T05:52:18;17.40;99.90
44367;DHT22;30086;57.660;12.000;2022-07-04T05:54:44;17.50;99.90
44367;DHT22;30086;57.660;12.000;2022-07-04T05:57:10;17.30;99.90
44367;DHT22;30086;57.660;12.000;2022-07-04T05:59:35;16.90;99.90
44367;DHT22;30086;57.660;12.000;2022-07-04T06:02:01;16.80;99.90
44367;DHT22;30086;57.660;12.000;2022-07-04T06:04:27;16.90;99.90
44367;DHT22;30086;57.660;12.000;2022-07-04T06:06:53;17.00;99.90
44367;DHT22;30086;57.660;12.000;2022-07-04T06:09:18;16.60;99.90
44367;DHT22;30086;57.660;12.000;2022-07-04T06:11:44;16.90;99.90
44367;DHT22;30086;57.660;12.000;2022-07-04T06:14:10;16.90;99.90
44367;DHT22;30086;57.660;12.000;2022-07-04T06:16:36;16.50;99.90
44367;DHT22;30086;57.660;12.000;2022-07-04T06:19:01;16.50;99.90
44367;DHT22;30086;57.660;12.000;2022-07-04T06:21:27;16.70;99.90
44367;DHT22;30086;57.660;12.000;2022-07-04T06:23:53;16.60;99.90
44367;DHT22;30086;57.660;12.000;2022-07-04T06:26:18;16.80;99.90
44367;DHT22;30086;57.660;12.000;2022-07-04T06:28:44;16.80;99.90
44367;DHT22;30086;57.660;12.000;2022-07-04T06:31:11;17.20;99.90
44367;DHT22;30086;57.660;12.000;2022-07-04T06:33:37;17.30;99.90
44367;DHT22;30086;57.660;12.000;2022-07-04T06:36:24;17.00;99.90
44367;DHT22;30086;57.660;12.000;2022-07-04T06:38:50;16.50;99.90
44367;DHT22;30086;57.660;12.000;2022-07-04T06:41:15;16.50;99.90
44367;DHT22;30086;57.660;12.000;2022-07-04T06:43:41;16.90;99.90
44367;DHT22;30086;57.660;12.000;2022-07-04T06:46:07;17.20;99.90
44367;DHT22;30086;57.660;12.000;2022-07-04T06:48:32;17.30;99.90
44367;DHT22;30086;57.660;12.000;2022-07-04T06:50:58;17.50;99.90
44367;DHT22;30086;57.660;12.000;2022-07-04T06:53:24;17.60;99.90
44367;DHT22;30086;57.660;12.000;2022-07-04T06:55:49;17.30;99.90
44367;DHT22;30086;57.660;12.000;2022-07-04T06:58:15;17.40;99.90
44367;DHT22;30086;57.660;12.000;2022-07-04T07:00:41;17.30;99.90
44367;DHT22;30086;57.660;12.000;2022-07-04T07:03:07;17.20;99.90
44367;DHT22;30086;57.660;12.000;2022-07-04T07:05:33;16.90;99.90
44367;DHT22;30086;57.660;12.000;2022-07-04T07:08:05;17.10;99.90
44367;DHT22;30086;57.660;12.000;2022-07-04T07:10:31;17.00;99.90
44367;DHT22;30086;57.660;12.000;2022-07-04T07:13:01;16.90;99.90
44367;DHT22;30086;57.660;12.000;2022-07-04T07:15:28;16.90;99.90
44367;DHT22;30086;57.660;12.000;2022-07-04T07:17:53;16.90;99.90
44367;DHT22;30086;57.660;12.000;2022-07-04T07:20:19;17.10;99.90
44367;DHT22;30086;57.660;12.000;2022-07-04T07:22:45;17.10;99.90
44367;DHT22;30086;57.660;12.000;2022-07-04T07:25:11;17.00;99.90
44367;DHT22;30086;57.660;12.000;2022-07-04T07:27:38;17.10;99.90
44367;DHT22;30086;57.660;12.000;2022-07-04T07:30:06;17.20;99.90
44367;DHT22;30086;57.660;12.000;2022-07-04T07:32:32;17.20;21.60
44367;DHT22;30086;57.660;12.000;2022-07-04T07:34:59;17.10;99.90
44367;DHT22;30086;57.660;12.000;2022-07-04T07:39:51;17.40;1.00
44367;DHT22;30086;57.660;12.000;2022-07-04T12:19:10;16.80;99.90
44367;DHT22;30086;57.660;12.000;2022-07-04T12:21:36;17.40;99.90
44367;DHT22;30086;57.660;12.000;2022-07-04T12:24:02;17.30;99.90
44367;DHT22;30086;57.660;12.000;2022-07-04T12:26:30;17.00;99.90
44367;DHT22;30086;57.660;12.000;2022-07-04T12:28:56;17.50;99.90
44367;DHT22;30086;57.660;12.000;2022-07-04T12:31:43;17.80;1.00
44367;DHT22;30086;57.660;12.000;2022-07-04T12:34:17;17.40;1.00
44367;DHT22;30086;57.660;12.000;2022-07-04T12:36:54;18.00;1.00
44367;DHT22;30086;57.660;12.000;2022-07-04T12:39:35;17.90;1.00
44367;DHT22;30086;57.660;12.000;2022-07-04T12:42:23;18.40;1.00
44367;DHT22;30086;57.660;12.000;2022-07-04T12:44:48;18.50;99.90
44367;DHT22;30086;57.660;12.000;2022-07-04T12:47:18;19.10;1.00
44367;DHT22;30086;57.660;12.000;2022-07-04T12:49:46;18.60;1.00
44367;DHT22;30086;57.660;12.000;2022-07-04T12:52:14;17.80;1.00
44367;DHT22;30086;57.660;12.000;2022-07-04T12:54:41;18.10;99.90
44367;DHT22;30086;57.660;12.000;2022-07-04T12:57:14;18.00;99.90
44367;DHT22;30086;57.660;12.000;2022-07-04T12:59:40;18.60;99.90
44367;DHT22;30086;57.660;12.000;2022-07-04T13:02:07;18.20;99.90
44367;DHT22;30086;57.660;12.000;2022-07-04T13:04:36;18.30;1.00
44367;DHT22;30086;57.660;12.000;2022-07-04T13:07:16;17.90;8.50
44367;DHT22;30086;57.660;12.000;2022-07-04T13:09:44;18.40;48.90
44367;DHT22;30086;57.660;12.000;2022-07-04T13:12:11;19.50;1.00
44367;DHT22;30086;57.660;12.000;2022-07-04T13:14:56;20.70;99.90
44367;DHT22;30086;57.660;12.000;2022-07-04T13:17:23;20.40;99.90
44367;DHT22;30086;57.660;12.000;2022-07-04T13:19:52;20.20;47.80
44367;DHT22;30086;57.660;12.000;2022-07-04T13:22:22;21.00;1.00
44367;DHT22;30086;57.660;12.000;2022-07-04T13:24:48;20.50;1.00
44367;DHT22;30086;57.660;12.000;2022-07-04T13:27:15;19.00;99.90
44367;DHT22;30086;57.660;12.000;2022-07-04T13:29:41;19.80;1.00
44367;DHT22;30086;57.660;12.000;2022-07-04T13:32:07;20.00;1.00
44367;DHT22;30086;57.660;12.000;2022-07-04T13:34:33;18.80;12.30
44367;DHT22;30086;57.660;12.000;2022-07-04T13:37:01;18.40;20.30
44367;DHT22;30086;57.660;12.000;2022-07-04T13:39:28;19.20;1.00
44367;DHT22;30086;57.660;12.000;2022-07-04T13:41:54;18.60;1.00
44367;DHT22;30086;57.660;12.000;2022-07-04T13:44:20;19.20;1.00
44367;DHT22;30086;57.660;12.000;2022-07-04T13:46:46;19.40;1.00
44367;DHT22;30086;57.660;12.000;2022-07-04T13:49:12;20.70;1.00
44367;DHT22;30086;57.660;12.000;2022-07-04T13:52:04;22.00;1.00
44367;DHT22;30086;57.660;12.000;2022-07-04T13:54:34;21.20;1.00
44367;DHT22;30086;57.660;12.000;2022-07-04T13:57:00;20.00;1.00
44367;DHT22;30086;57.660;12.000;2022-07-04T13:59:29;19.30;1.00
44367;DHT22;30086;57.660;12.000;2022-07-04T14:01:55;19.40;1.00
44367;DHT22;30086;57.660;12.000;2022-07-04T14:04:22;18.20;43.50
44367;DHT22;30086;57.660;12.000;2022-07-04T14:06:56;18.40;51.00
44367;DHT22;30086;57.660;12.000;2022-07-04T14:09:21;18.10;99.90
44367;DHT22;30086;57.660;12.000;2022-07-04T14:11:47;17.80;99.90
44367;DHT22;30086;57.660;12.000;2022-07-04T14:14:13;17.70;99.90
44367;DHT22;30086;57.660;12.000;2022-07-04T14:16:40;17.60;99.90
44367;DHT22;30086;57.660;12.000;2022-07-04T14:19:06;17.70;99.90
44367;DHT22;30086;57.660;12.000;2022-07-04T14:21:32;17.60;99.90
44367;DHT22;30086;57.660;12.000;2022-07-04T14:23:57;17.40;99.90
44367;DHT22;30086;57.660;12.000;2022-07-04T14:26:25;17.80;99.90
44367;DHT22;30086;57.660;12.000;2022-07-04T14:28:51;17.50;99.90
44367;DHT22;30086;57.660;12.000;2022-07-04T14:31:18;17.60;99.90
44367;DHT22;30086;57.660;12.000;2022-07-04T14:33:44;17.40;99.90
44367;DHT22;30086;57.660;12.000;2022-07-04T14:36:10;17.60;1.00
44367;DHT22;30086;57.660;12.000;2022-07-04T14:38:36;17.60;99.90
44367;DHT22;30086;57.660;12.000;2022-07-04T14:41:03;17.70;1.00
44367;DHT22;30086;57.660;12.000;2022-07-04T14:43:39;17.80;1.00
44367;DHT22;30086;57.660;12.000;2022-07-04T14:46:06;17.60;99.90
44367;DHT22;30086;57.660;12.000;2022-07-04T14:48:31;17.40;1.00
44367;DHT22;30086;57.660;12.000;2022-07-04T14:50:57;17.60;99.90
44367;DHT22;30086;57.660;12.000;2022-07-04T14:53:29;17.80;99.90
44367;DHT22;30086;57.660;12.000;2022-07-04T14:55:56;17.50;1.00
44367;DHT22;30086;57.660;12.000;2022-07-04T14:58:21;17.30;1.00
44367;DHT22;30086;57.660;12.000;2022-07-04T15:00:47;17.30;1.00
44367;DHT22;30086;57.660;12.000;2022-07-04T15:03:13;17.50;1.00
44367;DHT22;30086;57.660;12.000;2022-07-04T15:05:38;17.50;1.00
44367;DHT22;30086;57.660;12.000;2022-07-04T15:08:04;17.00;1.00
44367;DHT22;30086;57.660;12.000;2022-07-04T15:10:30;15.30;99.90
44367;DHT22;30086;57.660;12.000;2022-07-04T15:12:56;15.70;99.90
44367;DHT22;30086;57.660;12.000;2022-07-04T15:15:22;16.00;99.90
44367;DHT22;30086;57.660;12.000;2022-07-04T15:17:47;15.60;99.90
44367;DHT22;30086;57.660;12.000;2022-07-04T15:20:13;15.80;99.90
44367;DHT22;30086;57.660;12.000;2022-07-04T15:22:57;16.30;99.90
44367;DHT22;30086;57.660;12.000;2022-07-04T15:25:42;16.20;99.90
44367;DHT22;30086;57.660;12.000;2022-07-04T15:28:07;16.60;99.90
44367;DHT22;30086;57.660;12.000;2022-07-04T15:30:33;16.70;99.90
44367;DHT22;30086;57.660;12.000;2022-07-04T15:32:59;16.90;99.90
44367;DHT22;30086;57.660;12.000;2022-07-04T15:35:25;16.90;99.90
44367;DHT22;30086;57.660;12.000;2022-07-04T15:37:51;16.90;99.90
44367;DHT22;30086;57.660;12.000;2022-07-04T15:40:19;17.30;99.90
44367;DHT22;30086;57.660;12.000;2022-07-04T15:42:44;16.80;99.90
44367;DHT22;30086;57.660;12.000;2022-07-04T15:45:10;17.00;99.90
44367;DHT22;30086;57.660;12.000;2022-07-04T15:47:36;17.00;99.90
44367;DHT22;30086;57.660;12.000;2022-07-04T15:50:04;16.90;99.90
44367;DHT22;30086;57.660;12.000;2022-07-04T15:52:29;16.90;99.90
44367;DHT22;30086;57.660;12.000;2022-07-04T15:54:55;16.70;99.90
44367;DHT22;30086;57.660;12.000;2022-07-04T15:57:21;16.90;99.90
44367;DHT22;30086;57.660;12.000;2022-07-04T15:59:47;17.20;99.90
44367;DHT22;30086;57.660;12.000;2022-07-04T16:02:13;16.70;47.30
44367;DHT22;30086;57.660;12.000;2022-07-04T16:04:39;16.80;1.00
44367;DHT22;30086;57.660;12.000;2022-07-04T16:07:08;17.00;99.90
44367;DHT22;30086;57.660;12.000;2022-07-04T16:09:34;17.00;99.90
44367;DHT22;30086;57.660;12.000;2022-07-04T16:12:04;16.80;99.90
44367;DHT22;30086;57.660;12.000;2022-07-04T16:14:31;16.90;99.90
44367;DHT22;30086;57.660;12.000;2022-07-04T16:16:57;17.10;99.90
44367;DHT22;30086;57.660;12.000;2022-07-04T16:19:23;17.00;99.90
44367;DHT22;30086;57.660;12.000;2022-07-04T16:21:50;17.20;99.90
44367;DHT22;30086;57.660;12.000;2022-07-04T16:24:15;17.30;99.90
44367;DHT22;30086;57.660;12.000;2022-07-04T16:26:41;17.40;99.90
44367;DHT22;30086;57.660;12.000;2022-07-04T16:29:08;17.30;99.90
44367;DHT22;30086;57.660;12.000;2022-07-04T16:31:35;17.60;99.90
44367;DHT22;30086;57.660;12.000;2022-07-04T16:34:01;16.90;59.20
44367;DHT22;30086;57.660;12.000;2022-07-04T16:36:26;16.70;1.00
44367;DHT22;30086;57.660;12.000;2022-07-04T16:38:52;17.10;41.50
44367;DHT22;30086;57.660;12.000;2022-07-04T16:41:18;16.80;1.00
44367;DHT22;30086;57.660;12.000;2022-07-04T16:43:44;16.60;1.00
44367;DHT22;30086;57.660;12.000;2022-07-04T16:46:10;16.50;99.90
44367;DHT22;30086;57.660;12.000;2022-07-04T16:48:36;16.30;1.00
44367;DHT22;30086;57.660;12.000;2022-07-04T16:51:03;16.30;99.90
44367;DHT22;30086;57.660;12.000;2022-07-04T16:53:31;15.80;99.90
44367;DHT22;30086;57.660;12.000;2022-07-04T16:55:57;36.00;99.90
44367;DHT22;30086;57.660;12.000;2022-07-04T18:09:09;34.50;99.90
44367;DHT22;30086;57.660;12.000;2022-07-04T18:19:16;36.40;99.90
44367;DHT22;30086;57.660;12.000;2022-07-04T18:31:28;38.00;99.90
44367;DHT22;30086;57.660;12.000;2022-07-04T18:33:54;38.10;99.90
44367;DHT22;30086;57.660;12.000;2022-07-04T18:41:13;39.40;99.90
44367;DHT22;30086;57.660;12.000;2022-07-04T19:01:25;33.70;99.90
44367;DHT22;30086;57.660;12.000;2022-07-04T19:41:09;19.40;99.90
44367;DHT22;30086;57.660;12.000;2022-07-04T19:46:05;17.20;99.90
44367;DHT22;30086;57.660;12.000;2022-07-04T19:48:33;15.60;99.90
44367;DHT22;30086;57.660;12.000;2022-07-04T19:50:59;14.20;99.90
44367;DHT22;30086;57.660;12.000;2022-07-04T19:53:31;13.70;99.90
44367;DHT22;30086;57.660;12.000;2022-07-04T19:55:58;13.60;99.90
44367;DHT22;30086;57.660;12.000;2022-07-04T19:58:30;13.70;99.90
44367;DHT22;30086;57.660;12.000;2022-07-04T20:03:51;14.00;99.90
44367;DHT22;30086;57.660;12.000;2022-07-04T20:06:18;14.30;1.00
44367;DHT22;30086;57.660;12.000;2022-07-04T20:08:45;14.40;99.90
44367;DHT22;30086;57.660;12.000;2022-07-04T20:11:12;14.60;1.00
44367;DHT22;30086;57.660;12.000;2022-07-04T20:13:38;14.60;1.00
44367;DHT22;30086;57.660;12.000;2022-07-04T20:16:04;14.50;1.00
44367;DHT22;30086;57.660;12.000;2022-07-04T20:18:30;14.60;99.90
44367;DHT22;30086;57.660;12.000;2022-07-04T20:20:57;14.50;99.90
44367;DHT22;30086;57.660;12.000;2022-07-04T20:23:22;14.70;1.00
44367;DHT22;30086;57.660;12.000;2022-07-04T20:58:09;12.80;99.90
44367;DHT22;30086;57.660;12.000;2022-07-04T21:00:37;13.00;99.90
44367;DHT22;30086;57.660;12.000;2022-07-04T21:03:04;13.30;1.00
44367;DHT22;30086;57.660;12.000;2022-07-04T21:05:32;13.40;1.00
44367;DHT22;30086;57.660;12.000;2022-07-04T21:07:59;13.60;99.90
44367;DHT22;30086;57.660;12.000;2022-07-04T21:10:26;13.80;1.00
44367;DHT22;30086;57.660;12.000;2022-07-04T21:12:52;14.10;1.00
44367;DHT22;30086;57.660;12.000;2022-07-04T21:15:19;14.10;6.40
44367;DHT22;30086;57.660;12.000;2022-07-04T21:18:06;14.10;1.00
44367;DHT22;30086;57.660;12.000;2022-07-04T21:20:55;14.20;1.00
44367;DHT22;30086;57.660;12.000;2022-07-04T21:35:38;14.20;99.90
44367;DHT22;30086;57.660;12.000;2022-07-04T21:38:04;14.20;1.00
44367;DHT22;30086;57.660;12.000;2022-07-04T21:40:30;14.30;1.00
44367;DHT22;30086;57.660;12.000;2022-07-04T21:42:58;14.20;99.90
